Time;durP1;ratioP1;P1;durP2;ratioP2;P2;SDS_P1;SDS_P2;PMS_P1;PMS_P2;Temp;Humidity;BMP_temperature;BMP_pressure;BME280_temperature;BME280_humidity;BME280_pressure;Samples;Min_cycle;Max_cycle;Signal;HPM_P1;HPM_P2
2023/12/10 00:02:19;;;;;;;11.40;10.50;;;4.90;95.30;;;;;;5003586;28;20337;-86
2023/12/10 00:04:45;;;;;;;6.10;5.63;;;4.90;95.30;;;;;;4986603;28;20240;-87
2023/12/10 00:07:11;;;;;;;6.33;5.50;;;5.00;95.40;;;;;;4986994;28;20524;-87
2023/12/10 00:09:36;;;;;;;10.73;9.93;;;5.00;95.40;;;;;;4985673;28;20209;-87
2023/12/10 00:12:02;;;;;;;11.07;10.13;;;5.00;95.30;;;;;;4984965;28;20198;-87
2023/12/10 00:14:28;;;;;;;12.27;11.27;;;4.90;95.40;;;;;;4985634;28;20185;-87
2023/12/10 00:16:54;;;;;;;6.30;5.70;;;5.00;95.40;;;;;;4985295;28;20183;-86
2023/12/10 00:19:19;;;;;;;7.33;6.63;;;4.90;95.40;;;;;;5000837;28;20193;-88
2023/12/10 00:21:46;;;;;;;11.70;10.80;;;4.90;95.40;;;;;;5002179;28;20174;-87
2023/12/10 00:24:11;;;;;;;11.70;10.70;;;5.00;95.50;;;;;;5002322;28;20229;-86
2023/12/10 00:26:37;;;;;;;11.53;10.63;;;5.00;95.50;;;;;;4999904;28;20209;-87
2023/12/10 00:29:03;;;;;;;7.53;6.50;;;5.00;95.40;;;;;;4983519;28;20329;-86
2023/12/10 00:31:28;;;;;;;6.70;6.20;;;5.00;95.50;;;;;;5001660;28;20177;-87
2023/12/10 00:33:54;;;;;;;9.03;7.10;;;5.00;95.50;;;;;;4984184;28;20178;-87
2023/12/10 00:36:20;;;;;;;8.27;6.60;;;4.90;95.60;;;;;;5000480;28;20704;-86
2023/12/10 00:38:45;;;;;;;6.77;6.27;;;4.90;95.60;;;;;;4995558;28;20571;-88
2023/12/10 00:41:12;;;;;;;6.40;5.90;;;4.90;95.60;;;;;;5000457;28;20189;-87
2023/12/10 00:43:41;;;;;;;6.70;6.13;;;5.00;95.70;;;;;;4985700;28;20181;-87
2023/12/10 00:46:07;;;;;;;8.13;7.40;;;5.00;95.60;;;;;;5000612;28;20210;-87
2023/12/10 00:48:34;;;;;;;6.97;6.27;;;5.00;95.70;;;;;;5001269;28;20680;-88
2023/12/10 00:51:00;;;;;;;7.13;6.53;;;5.00;95.70;;;;;;4982482;28;20176;-88
2023/12/10 00:53:25;;;;;;;6.33;5.83;;;4.90;95.70;;;;;;5000183;28;20173;-87
2023/12/10 00:55:51;;;;;;;8.10;7.30;;;5.00;95.80;;;;;;5000807;28;20197;-87
2023/12/10 00:58:17;;;;;;;12.97;12.00;;;4.90;95.80;;;;;;4983955;28;20189;-87
2023/12/10 01:00:42;;;;;;;12.87;11.93;;;4.90;95.90;;;;;;5005716;28;20257;-87
2023/12/10 01:03:09;;;;;;;12.90;11.80;;;4.90;95.90;;;;;;4987850;28;20200;-87
2023/12/10 01:05:34;;;;;;;13.10;12.10;;;4.90;96.00;;;;;;4989007;28;20217;-87
2023/12/10 01:08:00;;;;;;;12.70;11.80;;;4.90;96.10;;;;;;5006045;28;20182;-87
2023/12/10 01:10:26;;;;;;;12.43;11.53;;;5.00;96.10;;;;;;4989611;28;20182;-87
2023/12/10 01:12:52;;;;;;;12.53;11.63;;;5.10;96.20;;;;;;4987827;28;20260;-87
2023/12/10 01:15:29;;;;;;;13.37;12.37;;;5.00;96.10;;;;;;5005751;28;20166;-87
2023/12/10 01:17:57;;;;;;;12.90;11.90;;;4.90;96.20;;;;;;4988316;28;20174;-87
2023/12/10 01:20:22;;;;;;;13.27;12.17;;;5.00;96.30;;;;;;4989096;28;20205;-87
2023/12/10 01:22:48;;;;;;;13.07;11.87;;;5.00;96.30;;;;;;4988764;28;20178;-87
2023/12/10 01:25:13;;;;;;;13.87;12.67;;;5.00;96.40;;;;;;4988559;28;20744;-87
2023/12/10 01:27:39;;;;;;;14.97;12.10;;;5.00;96.40;;;;;;5004927;28;20306;-87
2023/12/10 01:30:05;;;;;;;15.03;13.57;;;5.00;96.40;;;;;;4988522;28;20674;-87
2023/12/10 01:32:31;;;;;;;15.90;14.40;;;5.00;96.50;;;;;;4988887;28;20174;-87
2023/12/10 01:34:56;;;;;;;10.77;8.70;;;5.10;96.50;;;;;;5006661;28;20178;-87
2023/12/10 01:37:22;;;;;;;12.70;10.07;;;5.10;96.60;;;;;;5005590;28;20242;-87
2023/12/10 01:39:48;;;;;;;15.20;13.43;;;5.10;96.60;;;;;;4989045;28;20229;-87
2023/12/10 01:42:13;;;;;;;16.53;14.67;;;5.10;96.60;;;;;;5006132;28;20186;-87
2023/12/10 01:44:39;;;;;;;20.40;15.27;;;5.10;96.60;;;;;;4989534;28;20285;-87
2023/12/10 01:47:07;;;;;;;11.57;10.17;;;5.20;96.70;;;;;;4989381;28;20181;-88
2023/12/10 01:49:42;;;;;;;15.20;10.50;;;5.20;96.70;;;;;;4988749;28;20201;-87
2023/12/10 01:52:08;;;;;;;17.53;14.43;;;5.20;96.70;;;;;;4989357;28;20170;-87
2023/12/10 01:54:34;;;;;;;19.63;15.70;;;5.20;96.70;;;;;;4988819;28;20557;-87
2023/12/10 01:56:59;;;;;;;22.63;17.50;;;5.20;96.80;;;;;;4989494;28;20658;-88
2023/12/10 01:59:25;;;;;;;21.30;13.20;;;5.20;96.80;;;;;;4989509;28;20202;-87
2023/12/10 02:01:51;;;;;;;21.17;13.50;;;5.30;96.80;;;;;;4990371;28;20189;-87
2023/12/10 02:04:17;;;;;;;21.13;13.47;;;5.30;96.80;;;;;;4989635;28;20178;-87
2023/12/10 02:06:43;;;;;;;19.87;12.87;;;5.30;96.90;;;;;;4989387;28;20213;-87
2023/12/10 02:09:18;;;;;;;19.07;12.93;;;5.30;96.80;;;;;;5007348;28;20321;-87
2023/12/10 02:11:44;;;;;;;28.40;14.93;;;5.30;96.90;;;;;;4988411;28;20173;-87
2023/12/10 02:14:10;;;;;;;22.73;14.47;;;5.30;96.90;;;;;;5006235;28;20854;-87
2023/12/10 02:16:35;;;;;;;24.93;14.40;;;5.30;96.90;;;;;;5005496;28;20178;-87
2023/12/10 02:19:01;;;;;;;27.30;14.33;;;5.40;96.90;;;;;;5005676;28;20205;-87
2023/12/10 02:21:31;;;;;;;22.97;15.40;;;5.40;96.90;;;;;;5005804;28;20186;-87
2023/12/10 02:24:05;;;;;;;25.17;14.87;;;5.50;97.00;;;;;;5006127;28;20167;-88
2023/12/10 02:26:32;;;;;;;36.23;19.73;;;5.50;97.00;;;;;;4988044;28;20288;-87
2023/12/10 02:28:57;;;;;;;34.40;20.23;;;5.50;97.00;;;;;;4989338;28;20201;-87
2023/12/10 02:31:26;;;;;;;33.60;19.80;;;5.50;96.90;;;;;;4988626;28;20174;-87
2023/12/10 02:33:52;;;;;;;28.90;20.27;;;5.50;97.00;;;;;;5005260;28;20178;-87
2023/12/10 02:36:17;;;;;;;33.73;19.73;;;5.50;97.00;;;;;;5006062;28;20202;-87
2023/12/10 02:38:44;;;;;;;29.53;18.20;;;5.50;97.00;;;;;;4988905;28;20621;-87
2023/12/10 02:41:10;;;;;;;30.87;18.80;;;5.40;97.00;;;;;;4989628;28;20249;-86
2023/12/10 02:43:36;;;;;;;31.10;18.80;;;5.50;97.00;;;;;;4989066;28;20189;-88
2023/12/10 02:46:01;;;;;;;30.87;18.37;;;5.50;97.00;;;;;;4988824;28;20213;-87
2023/12/10 02:48:27;;;;;;;44.67;19.60;;;5.50;97.00;;;;;;5005942;28;20198;-87
2023/12/10 02:50:54;;;;;;;32.40;18.73;;;5.70;97.10;;;;;;4988506;28;20185;-87
2023/12/10 02:53:20;;;;;;;41.93;18.53;;;5.70;97.10;;;;;;5006919;28;20178;-87
2023/12/10 02:55:46;;;;;;;46.80;19.53;;;5.80;97.10;;;;;;5005947;28;20656;-87
2023/12/10 02:58:11;;;;;;;32.93;14.90;;;6.00;97.20;;;;;;4988862;28;20192;-87
2023/12/10 03:00:37;;;;;;;24.23;13.50;;;6.20;97.30;;;;;;5005843;28;20182;-88
2023/12/10 03:03:02;;;;;;;39.87;12.63;;;6.20;97.20;;;;;;4989108;28;20201;-87
2023/12/10 03:05:28;;;;;;;40.27;9.40;;;6.30;97.20;;;;;;5006501;28;20240;-87
2023/12/10 03:07:54;;;;;;;39.30;9.97;;;6.30;97.20;;;;;;5004726;28;20269;-87
2023/12/10 03:10:20;;;;;;;38.63;11.87;;;6.30;97.10;;;;;;5006294;28;20221;-87
2023/12/10 03:12:45;;;;;;;47.93;12.40;;;6.40;97.10;;;;;;4988228;28;20201;-87
2023/12/10 03:15:11;;;;;;;51.50;10.20;;;6.40;97.00;;;;;;4988252;28;20178;-87
2023/12/10 03:17:37;;;;;;;37.67;9.03;;;6.30;97.00;;;;;;5005871;28;20189;-88
2023/12/10 03:20:03;;;;;;;37.80;8.00;;;6.30;96.90;;;;;;5005431;28;20206;-88
2023/12/10 03:22:29;;;;;;;41.70;10.53;;;6.50;96.90;;;;;;4989083;28;20192;-87
2023/12/10 03:24:55;;;;;;;45.67;10.97;;;6.50;96.80;;;;;;5007251;28;20208;-87
2023/12/10 03:27:21;;;;;;;29.27;7.50;;;6.60;96.70;;;;;;4990035;28;20186;-87
2023/12/10 03:29:46;;;;;;;22.80;5.67;;;6.60;96.50;;;;;;4989552;28;20265;-87
2023/12/10 03:32:12;;;;;;;43.53;6.67;;;6.70;96.40;;;;;;5005216;28;20181;-87
2023/12/10 03:34:37;;;;;;;54.03;7.70;;;6.70;96.10;;;;;;5007229;28;20170;-87
2023/12/10 03:37:03;;;;;;;37.13;6.77;;;6.80;96.10;;;;;;5006618;28;20189;-87
2023/12/10 03:39:29;;;;;;;28.53;5.93;;;6.80;95.90;;;;;;5004107;28;20221;-87
2023/12/10 03:41:55;;;;;;;33.73;7.83;;;6.80;95.80;;;;;;5005335;28;20208;-87
2023/12/10 03:44:20;;;;;;;45.33;6.77;;;6.80;95.60;;;;;;5004373;28;20205;-87
2023/12/10 03:46:46;;;;;;;35.70;6.30;;;6.80;95.40;;;;;;5004238;28;20206;-86
2023/12/10 03:49:11;;;;;;;49.43;9.90;;;6.80;95.50;;;;;;5004609;28;20202;-87
2023/12/10 03:51:37;;;;;;;38.27;7.87;;;6.80;95.20;;;;;;5004310;28;20216;-87
2023/12/10 03:54:03;;;;;;;30.10;6.70;;;6.80;95.20;;;;;;5005212;28;20178;-87
2023/12/10 03:56:29;;;;;;;31.50;6.60;;;6.80;95.20;;;;;;4989779;28;20535;-87
2023/12/10 03:58:55;;;;;;;29.50;9.47;;;6.80;95.00;;;;;;5005275;28;20213;-87
2023/12/10 04:01:21;;;;;;;45.53;12.17;;;6.80;94.90;;;;;;4990268;28;20178;-87
2023/12/10 04:03:47;;;;;;;51.20;12.23;;;6.80;94.80;;;;;;5006372;28;20205;-87
2023/12/10 04:06:12;;;;;;;35.47;11.03;;;6.80;94.80;;;;;;5006088;28;20211;-86
2023/12/10 04:08:38;;;;;;;38.67;9.93;;;6.70;94.60;;;;;;4989501;28;20221;-87
2023/12/10 04:11:04;;;;;;;35.27;11.90;;;6.70;94.70;;;;;;5006712;28;20170;-87
2023/12/10 04:13:30;;;;;;;39.20;11.43;;;6.70;94.70;;;;;;4989874;28;20236;-87
2023/12/10 04:15:56;;;;;;;30.27;10.03;;;6.70;94.60;;;;;;4988630;28;20186;-87
2023/12/10 04:18:21;;;;;;;46.57;12.80;;;6.70;94.60;;;;;;5006145;28;20269;-87
2023/12/10 04:20:47;;;;;;;43.33;10.77;;;6.70;94.50;;;;;;5005821;28;20182;-86
2023/12/10 04:23:13;;;;;;;34.10;10.53;;;6.70;94.60;;;;;;4987362;28;20268;-88
2023/12/10 04:25:38;;;;;;;30.80;11.27;;;6.80;94.30;;;;;;5006095;28;20237;-87
2023/12/10 04:28:04;;;;;;;34.40;10.40;;;6.80;94.20;;;;;;4988364;28;20250;-88
2023/12/10 04:30:31;;;;;;;31.67;10.10;;;6.70;94.30;;;;;;4988569;28;20174;-87
2023/12/10 04:32:56;;;;;;;30.40;9.77;;;6.80;94.40;;;;;;4988193;28;20170;-87
2023/12/10 04:35:22;;;;;;;35.27;10.53;;;6.80;94.20;;;;;;5003891;28;20213;-87
2023/12/10 04:37:47;;;;;;;20.37;9.47;;;6.80;94.40;;;;;;5004505;28;20189;-87
2023/12/10 04:40:13;;;;;;;41.07;11.10;;;6.80;94.40;;;;;;5004217;28;20277;-87
2023/12/10 04:42:39;;;;;;;34.00;10.40;;;6.80;94.30;;;;;;5004917;28;20549;-87
2023/12/10 04:45:06;;;;;;;28.30;10.53;;;6.90;94.30;;;;;;4988635;28;20245;-86
2023/12/10 04:47:32;;;;;;;33.83;7.87;;;7.00;94.10;;;;;;4986678;28;20237;-88
2023/12/10 04:49:58;;;;;;;36.70;7.47;;;6.90;94.20;;;;;;5004896;28;20197;-87
2023/12/10 04:52:23;;;;;;;32.33;10.73;;;6.80;94.20;;;;;;5003185;28;20218;-87
2023/12/10 04:54:49;;;;;;;28.20;9.77;;;6.80;94.30;;;;;;5004642;28;20302;-86
2023/12/10 04:57:15;;;;;;;30.67;12.33;;;6.90;94.40;;;;;;5003445;28;20186;-87
2023/12/10 04:59:40;;;;;;;33.10;6.93;;;6.80;94.30;;;;;;4985830;28;20241;-88
2023/12/10 05:02:06;;;;;;;17.83;7.27;;;6.80;94.40;;;;;;4986447;28;20193;-87
2023/12/10 05:04:31;;;;;;;29.30;9.97;;;6.80;94.50;;;;;;5001454;28;20182;-86
2023/12/10 05:06:57;;;;;;;28.87;11.37;;;6.80;94.50;;;;;;5002095;28;20174;-87
2023/12/10 05:09:22;;;;;;;24.50;7.07;;;6.80;94.70;;;;;;5001264;28;20221;-87
2023/12/10 05:11:48;;;;;;;35.40;7.07;;;6.80;94.70;;;;;;5001276;28;20190;-87
2023/12/10 05:14:13;;;;;;;34.20;8.40;;;6.80;94.80;;;;;;5001460;28;20181;-87
2023/12/10 05:16:39;;;;;;;31.57;9.73;;;6.80;94.90;;;;;;5002291;28;20181;-87
2023/12/10 05:19:05;;;;;;;42.17;9.87;;;6.80;95.00;;;;;;5001290;28;20194;-87
2023/12/10 05:21:30;;;;;;;32.90;7.87;;;6.80;95.10;;;;;;4984755;28;20186;-87
2023/12/10 05:23:57;;;;;;;27.80;6.43;;;6.80;95.00;;;;;;5002155;28;20261;-87
2023/12/10 05:26:22;;;;;;;40.83;6.47;;;6.80;95.10;;;;;;4984510;28;20596;-87
2023/12/10 05:28:48;;;;;;;33.30;7.37;;;6.70;95.20;;;;;;5000245;28;20208;-87
2023/12/10 05:31:14;;;;;;;27.40;7.93;;;6.80;95.20;;;;;;5000967;28;20253;-87
2023/12/10 05:33:39;;;;;;;30.73;5.73;;;6.80;95.20;;;;;;4984969;28;20182;-87
2023/12/10 05:36:06;;;;;;;33.00;6.43;;;6.80;95.10;;;;;;5001200;28;20185;-87
2023/12/10 05:38:31;;;;;;;33.40;6.30;;;6.80;95.20;;;;;;5002212;28;20194;-88
2023/12/10 05:40:57;;;;;;;34.93;6.97;;;6.80;95.20;;;;;;4984763;28;20182;-87
2023/12/10 05:43:22;;;;;;;33.17;7.27;;;6.80;95.20;;;;;;5000419;28;20181;-88
2023/12/10 05:45:48;;;;;;;43.30;8.60;;;6.80;95.20;;;;;;5003446;28;20237;-87
2023/12/10 05:48:13;;;;;;;32.57;7.87;;;6.80;95.30;;;;;;5007232;28;20174;-87
2023/12/10 05:50:39;;;;;;;30.57;7.67;;;6.80;95.30;;;;;;5005688;28;20319;-87
2023/12/10 05:53:05;;;;;;;34.93;11.47;;;6.80;95.30;;;;;;5006282;28;20193;-87
2023/12/10 05:55:30;;;;;;;33.03;11.17;;;6.80;95.30;;;;;;5007883;28;20198;-88
2023/12/10 05:57:56;;;;;;;35.07;11.43;;;6.80;95.40;;;;;;4988595;28;20189;-87
2023/12/10 06:00:22;;;;;;;29.47;10.70;;;6.70;95.40;;;;;;4990386;28;20232;-88
2023/12/10 06:02:47;;;;;;;38.07;13.00;;;6.70;95.40;;;;;;4990118;28;20185;-87
2023/12/10 06:05:13;;;;;;;40.97;11.30;;;6.80;95.50;;;;;;5007373;28;20209;-87
2023/12/10 06:07:39;;;;;;;38.93;12.13;;;6.70;95.50;;;;;;4989381;28;20185;-87
2023/12/10 06:10:05;;;;;;;32.17;10.63;;;6.70;95.50;;;;;;4990744;28;20224;-88
2023/12/10 06:12:30;;;;;;;42.40;11.90;;;6.70;95.60;;;;;;4989027;28;20233;-88
2023/12/10 06:14:56;;;;;;;34.57;11.00;;;6.70;95.60;;;;;;5004499;28;20644;-88
2023/12/10 06:17:22;;;;;;;41.83;11.37;;;6.70;95.60;;;;;;5005671;28;20236;-87
2023/12/10 06:19:47;;;;;;;31.20;11.90;;;6.70;95.70;;;;;;4989041;28;20260;-87
2023/12/10 06:22:13;;;;;;;21.80;10.93;;;6.70;95.70;;;;;;4986554;28;20186;-87
2023/12/10 06:24:39;;;;;;;32.47;10.83;;;6.70;95.70;;;;;;5004670;28;20181;-87
2023/12/10 06:27:04;;;;;;;24.20;11.00;;;6.70;95.80;;;;;;5005575;28;20178;-87
2023/12/10 06:29:30;;;;;;;28.73;10.07;;;6.70;95.80;;;;;;4987120;28;20688;-88
2023/12/10 06:31:56;;;;;;;23.37;10.10;;;6.70;95.80;;;;;;4988095;28;20178;-87
2023/12/10 06:34:22;;;;;;;35.90;9.50;;;6.70;95.80;;;;;;5005398;28;20261;-87
2023/12/10 06:36:47;;;;;;;31.97;10.10;;;6.70;95.80;;;;;;5005178;28;20169;-87
2023/12/10 06:39:13;;;;;;;27.30;9.63;;;6.70;95.90;;;;;;5006095;28;20739;-88
2023/12/10 06:41:39;;;;;;;29.07;7.13;;;6.70;95.90;;;;;;5005304;28;20177;-88
2023/12/10 06:44:05;;;;;;;23.70;6.93;;;6.70;95.90;;;;;;5006719;28;20178;-88
2023/12/10 06:46:30;;;;;;;32.33;10.87;;;6.80;95.90;;;;;;4989437;28;20260;-87
2023/12/10 06:48:56;;;;;;;24.07;10.30;;;6.70;95.90;;;;;;4990164;28;20197;-88
2023/12/10 06:51:21;;;;;;;32.80;10.50;;;6.70;95.90;;;;;;4989456;28;20182;-87
2023/12/10 06:53:47;;;;;;;29.43;6.87;;;6.70;96.00;;;;;;5005937;28;20197;-87
2023/12/10 06:56:13;;;;;;;26.93;5.70;;;6.70;96.00;;;;;;5006129;28;20182;-87
2023/12/10 06:58:39;;;;;;;45.50;11.07;;;6.70;96.00;;;;;;5004187;28;20221;-87
2023/12/10 07:01:04;;;;;;;30.67;9.07;;;6.70;96.10;;;;;;4990551;28;20181;-88
2023/12/10 07:03:30;;;;;;;30.37;10.13;;;6.70;96.10;;;;;;5006426;28;20213;-88
2023/12/10 07:05:56;;;;;;;26.47;6.10;;;6.70;96.10;;;;;;4990737;28;20209;-87
2023/12/10 07:08:21;;;;;;;36.50;6.33;;;6.70;96.10;;;;;;5007377;28;20209;-87
2023/12/10 07:10:47;;;;;;;27.47;6.10;;;6.60;96.20;;;;;;5007969;28;20184;-87
2023/12/10 07:13:13;;;;;;;35.40;7.27;;;6.70;96.30;;;;;;4998924;28;20174;-88
2023/12/10 07:15:39;;;;;;;28.53;6.30;;;6.60;96.30;;;;;;5005891;28;20195;-87
2023/12/10 07:18:04;;;;;;;28.03;6.13;;;6.60;96.30;;;;;;5003866;28;20553;-87
2023/12/10 07:20:30;;;;;;;25.40;6.33;;;6.60;96.30;;;;;;5000329;28;20182;-87
2023/12/10 07:22:56;;;;;;;26.63;6.10;;;6.60;96.40;;;;;;4996730;28;20197;-90
2023/12/10 07:25:21;;;;;;;30.47;6.53;;;6.60;96.40;;;;;;5002391;28;20317;-87
2023/12/10 07:27:47;;;;;;;17.17;5.73;;;6.60;96.40;;;;;;5004960;28;20209;-87
2023/12/10 07:30:13;;;;;;;17.90;7.10;;;6.50;96.50;;;;;;5002050;28;20198;-88
2023/12/10 07:32:38;;;;;;;18.93;5.23;;;6.60;96.50;;;;;;5005323;28;20177;-87
2023/12/10 07:35:04;;;;;;;27.63;9.27;;;6.60;96.50;;;;;;5003154;28;20194;-87
2023/12/10 07:37:30;;;;;;;22.73;9.53;;;6.60;96.50;;;;;;5002197;28;20186;-88
2023/12/10 07:39:55;;;;;;;28.70;9.37;;;6.60;96.50;;;;;;5004711;28;20210;-87
2023/12/10 07:42:21;;;;;;;25.13;6.27;;;6.70;96.50;;;;;;5002447;28;20700;-87
2023/12/10 07:44:47;;;;;;;17.60;6.10;;;6.60;96.50;;;;;;5001167;28;20228;-88
2023/12/10 07:47:12;;;;;;;16.87;6.23;;;6.70;96.50;;;;;;5003766;28;20174;-91
2023/12/10 07:49:38;;;;;;;18.40;6.07;;;6.70;96.50;;;;;;4999560;28;20201;-87
2023/12/10 07:52:03;;;;;;;24.80;5.83;;;6.70;96.50;;;;;;5005446;28;20185;-87
2023/12/10 07:54:29;;;;;;;18.20;7.30;;;6.60;96.40;;;;;;5006591;28;20185;-87
2023/12/10 07:56:55;;;;;;;22.23;6.83;;;6.60;96.40;;;;;;5006645;28;20192;-88
2023/12/10 07:59:20;;;;;;;18.20;9.13;;;6.60;96.40;;;;;;5005711;28;20209;-87
2023/12/10 08:01:46;;;;;;;27.60;9.57;;;6.60;96.40;;;;;;5006666;28;20193;-88
2023/12/10 08:04:12;;;;;;;19.83;8.83;;;6.60;96.40;;;;;;5008604;28;20174;-87
2023/12/10 08:06:37;;;;;;;24.23;8.97;;;6.60;96.40;;;;;;4990017;28;20213;-87
2023/12/10 08:09:04;;;;;;;15.07;8.60;;;6.60;96.40;;;;;;5004905;28;20217;-87
2023/12/10 08:11:31;;;;;;;17.60;9.50;;;6.60;96.40;;;;;;5005692;28;20174;-87
2023/12/10 08:13:56;;;;;;;20.13;9.20;;;6.60;96.40;;;;;;4990418;28;20197;-88
2023/12/10 08:16:23;;;;;;;16.37;8.60;;;6.70;96.40;;;;;;5005874;28;20182;-88
2023/12/10 08:18:50;;;;;;;14.17;8.07;;;6.70;96.40;;;;;;5007489;28;20218;-87
2023/12/10 08:21:15;;;;;;;20.03;9.17;;;6.70;96.40;;;;;;5007380;28;20180;-87
2023/12/10 08:23:41;;;;;;;21.97;9.27;;;6.70;96.30;;;;;;5006218;28;20632;-87
2023/12/10 08:26:07;;;;;;;16.60;4.93;;;6.70;96.40;;;;;;5005371;28;20202;-88
2023/12/10 08:28:33;;;;;;;11.67;4.23;;;6.70;96.40;;;;;;5007211;28;20206;-87
2023/12/10 08:30:59;;;;;;;14.47;4.33;;;6.70;96.40;;;;;;4988221;28;20174;-87
2023/12/10 08:33:24;;;;;;;15.10;6.57;;;6.70;96.40;;;;;;5005297;28;20178;-87
2023/12/10 08:35:50;;;;;;;18.00;6.57;;;6.70;96.40;;;;;;5006972;28;20213;-87
2023/12/10 08:38:15;;;;;;;14.77;4.73;;;6.60;96.40;;;;;;5005621;28;20186;-87
2023/12/10 08:40:41;;;;;;;14.40;4.57;;;6.70;96.40;;;;;;5005264;28;20181;-87
2023/12/10 08:43:07;;;;;;;19.40;5.23;;;6.70;96.50;;;;;;5005847;28;20177;-87
2023/12/10 08:45:32;;;;;;;17.63;7.70;;;6.70;96.50;;;;;;4986259;28;20685;-87
2023/12/10 08:47:58;;;;;;;16.57;7.27;;;6.70;96.50;;;;;;5005825;28;20193;-87
2023/12/10 08:50:23;;;;;;;14.83;4.67;;;6.80;96.50;;;;;;5007263;28;20256;-87
2023/12/10 08:52:49;;;;;;;18.03;4.93;;;6.70;96.50;;;;;;5006190;28;20175;-87
2023/12/10 08:55:14;;;;;;;10.87;5.13;;;6.80;96.60;;;;;;4988907;28;20181;-87
2023/12/10 08:57:40;;;;;;;13.20;7.13;;;6.70;96.50;;;;;;5006617;28;20213;-87
2023/12/10 09:00:06;;;;;;;13.50;7.83;;;6.70;96.60;;;;;;5007581;28;20205;-88
2023/12/10 09:02:32;;;;;;;14.60;5.17;;;6.70;96.60;;;;;;5008207;28;20185;-87
2023/12/10 09:04:58;;;;;;;19.83;5.53;;;6.70;96.60;;;;;;5006972;28;20194;-87
2023/12/10 09:07:23;;;;;;;21.30;5.60;;;6.80;96.60;;;;;;5006092;28;20185;-87
2023/12/10 09:09:49;;;;;;;17.80;8.00;;;6.80;96.70;;;;;;5006075;28;20202;-87
2023/12/10 09:12:15;;;;;;;11.67;7.77;;;6.70;96.70;;;;;;5004342;28;20194;-87
2023/12/10 09:14:40;;;;;;;14.50;5.87;;;6.80;96.70;;;;;;5006608;28;20175;-87
2023/12/10 09:17:06;;;;;;;17.17;5.80;;;6.80;96.70;;;;;;5005450;28;20177;-87
2023/12/10 09:19:32;;;;;;;19.07;7.07;;;6.80;96.70;;;;;;5003972;28;20221;-87
2023/12/10 09:21:58;;;;;;;24.00;8.27;;;6.80;96.70;;;;;;5009503;28;20322;-87
2023/12/10 09:24:23;;;;;;;17.30;8.80;;;6.90;96.70;;;;;;5009537;28;20684;-87
2023/12/10 09:26:49;;;;;;;16.77;5.90;;;6.80;96.80;;;;;;5008408;28;20209;-87
2023/12/10 09:29:16;;;;;;;13.30;5.77;;;6.90;96.80;;;;;;5009747;28;20225;-87
2023/12/10 09:31:41;;;;;;;13.20;5.83;;;6.90;96.80;;;;;;5010908;28;20228;-87
2023/12/10 09:34:07;;;;;;;18.50;6.97;;;6.90;96.80;;;;;;5010190;28;20198;-87
2023/12/10 09:36:33;;;;;;;25.47;6.90;;;6.80;96.80;;;;;;5009053;28;20166;-87
2023/12/10 09:38:59;;;;;;;23.73;6.40;;;6.80;96.80;;;;;;5009218;28;20708;-87
2023/12/10 09:41:24;;;;;;;26.47;6.70;;;6.90;96.90;;;;;;4994299;28;20174;-87
2023/12/10 09:43:50;;;;;;;19.00;6.90;;;6.90;96.90;;;;;;5011040;28;20185;-87
2023/12/10 09:46:16;;;;;;;17.00;7.10;;;7.00;96.90;;;;;;5010703;28;20364;-87
2023/12/10 09:48:42;;;;;;;21.37;6.80;;;7.10;96.90;;;;;;5008738;28;20198;-87
2023/12/10 09:51:08;;;;;;;18.60;6.70;;;7.00;96.90;;;;;;5008811;28;20518;-87
2023/12/10 09:53:34;;;;;;;16.67;6.77;;;7.10;97.00;;;;;;5005143;28;20174;-88
2023/12/10 09:56:00;;;;;;;16.40;6.87;;;7.10;97.00;;;;;;5005941;28;20198;-87
2023/12/10 09:58:25;;;;;;;15.97;8.37;;;7.10;97.10;;;;;;5006101;28;20205;-87
2023/12/10 10:00:51;;;;;;;15.33;8.33;;;7.10;97.10;;;;;;5005773;28;20178;-87
2023/12/10 10:03:18;;;;;;;16.20;8.43;;;7.20;97.20;;;;;;5008151;28;20724;-87
2023/12/10 10:05:43;;;;;;;17.20;8.17;;;7.20;97.20;;;;;;5007436;28;20719;-88
2023/12/10 10:08:09;;;;;;;14.10;8.07;;;7.20;97.30;;;;;;5009705;28;20225;-87
2023/12/10 10:10:35;;;;;;;11.33;8.30;;;7.20;97.30;;;;;;5009266;28;20212;-87
2023/12/10 10:13:00;;;;;;;16.97;8.60;;;7.20;97.30;;;;;;4990317;28;20182;-87
2023/12/10 10:15:30;;;;;;;14.87;8.00;;;7.20;97.30;;;;;;5008461;28;20182;-87
2023/12/10 10:17:57;;;;;;;18.10;8.50;;;7.30;97.30;;;;;;5008487;28;20181;-87
2023/12/10 10:20:24;;;;;;;15.53;9.10;;;7.30;97.40;;;;;;4991198;28;20198;-87
2023/12/10 10:22:54;;;;;;;16.23;9.60;;;7.30;97.40;;;;;;5008921;28;20184;-88
2023/12/10 10:25:20;;;;;;;14.33;9.20;;;7.30;97.40;;;;;;4991205;28;20228;-87
2023/12/10 10:27:45;;;;;;;13.87;8.27;;;7.40;97.40;;;;;;5008433;28;20181;-88
2023/12/10 10:30:11;;;;;;;11.90;8.80;;;7.40;97.40;;;;;;5003451;28;20186;-87
2023/12/10 10:32:39;;;;;;;16.73;9.60;;;7.40;97.40;;;;;;5007066;28;20229;-87
2023/12/10 10:35:06;;;;;;;17.10;8.87;;;7.40;97.40;;;;;;4989654;28;20272;-87
2023/12/10 10:37:32;;;;;;;12.23;8.87;;;7.40;97.40;;;;;;4990307;28;20178;-87
2023/12/10 10:39:58;;;;;;;11.87;8.43;;;7.30;97.30;;;;;;5008348;28;20229;-87
2023/12/10 10:42:23;;;;;;;10.63;9.00;;;7.40;97.40;;;;;;4989864;28;20627;-87
2023/12/10 10:44:50;;;;;;;13.03;9.53;;;7.40;97.40;;;;;;5005535;28;20182;-88
2023/12/10 10:47:18;;;;;;;11.83;7.53;;;7.50;97.40;;;;;;5007309;28;20154;-87
2023/12/10 10:49:51;;;;;;;17.00;8.03;;;7.50;97.40;;;;;;5006185;28;20194;-87
2023/12/10 10:52:21;;;;;;;16.07;9.33;;;7.50;97.40;;;;;;4991101;28;20166;-87
2023/12/10 10:54:48;;;;;;;13.93;8.23;;;7.60;97.40;;;;;;4989944;28;20181;-87
2023/12/10 10:57:31;;;;;;;14.10;5.80;;;7.60;97.40;;;;;;4989718;28;20174;-88
2023/12/10 10:59:57;;;;;;;18.90;6.80;;;7.70;97.40;;;;;;5007994;28;20683;-87
2023/12/10 11:02:23;;;;;;;14.40;5.93;;;7.70;97.40;;;;;;5008581;28;20182;-87
2023/12/10 11:04:50;;;;;;;20.73;8.57;;;7.70;97.30;;;;;;4991542;28;20178;-87
2023/12/10 11:07:18;;;;;;;15.70;8.30;;;7.70;97.30;;;;;;5009515;28;20193;-87
2023/12/10 11:10:02;;;;;;;17.30;6.40;;;7.80;97.30;;;;;;4991194;28;20214;-87
2023/12/10 11:12:40;;;;;;;13.93;7.33;;;7.70;97.20;;;;;;4990923;28;20237;-87
2023/12/10 11:15:26;;;;;;;15.77;8.13;;;7.80;97.20;;;;;;5008843;28;20642;-87
2023/12/10 11:17:55;;;;;;;16.90;9.23;;;7.80;97.20;;;;;;4990540;28;20205;-87
2023/12/10 11:20:43;;;;;;;13.50;9.40;;;7.80;97.20;;;;;;4990561;28;20379;-87
2023/12/10 11:23:14;;;;;;;19.47;7.73;;;7.70;97.20;;;;;;4989452;28;20233;-87
2023/12/10 11:25:40;;;;;;;17.53;7.40;;;7.70;97.30;;;;;;4989917;28;20225;-87
2023/12/10 11:28:15;;;;;;;15.10;7.90;;;7.70;97.20;;;;;;5007250;28;20171;-87
2023/12/10 11:30:45;;;;;;;23.00;7.53;;;7.80;97.30;;;;;;4990867;28;20180;-87
2023/12/10 11:33:13;;;;;;;22.50;7.17;;;7.90;97.30;;;;;;5008080;28;20228;-87
2023/12/10 11:35:39;;;;;;;22.43;7.10;;;7.90;97.30;;;;;;5009017;28;20221;-87
2023/12/10 11:38:05;;;;;;;28.67;6.57;;;8.00;97.30;;;;;;4991550;28;20185;-87
2023/12/10 11:40:31;;;;;;;26.37;7.77;;;8.00;97.30;;;;;;5009754;28;20178;-88
2023/12/10 11:43:04;;;;;;;16.83;6.93;;;8.00;97.30;;;;;;5007902;28;20198;-87
2023/12/10 11:45:30;;;;;;;21.03;6.40;;;8.00;97.30;;;;;;4984161;28;20209;-87
2023/12/10 11:47:56;;;;;;;20.07;6.50;;;8.00;97.30;;;;;;5006114;28;20202;-87
2023/12/10 11:50:21;;;;;;;22.83;7.40;;;8.00;97.20;;;;;;5007746;28;20201;-87
2023/12/10 11:52:47;;;;;;;26.20;7.87;;;7.90;97.20;;;;;;4999650;28;20170;-87
2023/12/10 11:55:13;;;;;;;36.33;12.40;;;8.00;97.20;;;;;;4982232;28;20277;-88
2023/12/10 11:57:43;;;;;;;25.90;10.83;;;8.00;97.20;;;;;;4985020;28;20182;-87
2023/12/10 12:00:11;;;;;;;33.57;11.30;;;8.00;97.20;;;;;;5007736;28;20220;-87
2023/12/10 12:02:44;;;;;;;24.93;9.03;;;7.90;97.20;;;;;;5007809;28;20175;-87
2023/12/10 12:05:11;;;;;;;23.17;9.17;;;7.90;97.10;;;;;;5008153;28;20202;-87
2023/12/10 12:07:37;;;;;;;27.10;9.13;;;8.00;97.20;;;;;;4989689;28;20178;-88
2023/12/10 12:10:03;;;;;;;20.80;7.23;;;7.90;97.20;;;;;;5008110;28;20217;-87
2023/12/10 12:12:29;;;;;;;24.77;6.97;;;8.00;97.20;;;;;;5007963;28;20174;-87
2023/12/10 12:14:55;;;;;;;23.60;7.90;;;8.00;97.10;;;;;;5004672;28;20694;-88
2023/12/10 12:17:22;;;;;;;20.13;7.30;;;8.00;97.10;;;;;;4984471;28;20585;-88
2023/12/10 12:19:47;;;;;;;20.77;6.77;;;8.00;97.00;;;;;;5000829;28;20186;-88
2023/12/10 12:22:13;;;;;;;13.87;4.97;;;7.90;97.00;;;;;;4999406;28;20169;-89
2023/12/10 12:24:39;;;;;;;19.93;5.53;;;7.90;97.00;;;;;;5000197;28;20170;-88
2023/12/10 12:27:08;;;;;;;16.20;4.93;;;8.00;97.00;;;;;;5000377;28;20225;-88
2023/12/10 12:29:37;;;;;;;14.27;4.33;;;7.90;96.90;;;;;;4984710;28;20701;-88
2023/12/10 12:32:03;;;;;;;15.67;4.10;;;7.90;96.90;;;;;;5002036;28;20174;-88
2023/12/10 12:34:30;;;;;;;10.37;3.57;;;7.90;96.80;;;;;;5000841;28;20170;-88
2023/12/10 12:36:56;;;;;;;19.57;4.80;;;7.90;96.70;;;;;;5002953;28;20228;-87
2023/12/10 12:39:22;;;;;;;22.63;4.97;;;7.90;96.60;;;;;;5004395;28;20202;-88